sensor_id;sensor_type;location;lat;lon;timestamp;pressure;altitude;pressure_sealevel;temperature;humidity
9969;BME280;5025;48.890;9.278;2023-05-25T00:01:02;99184.94;;;12.54;51.18
9969;BME280;5025;48.890;9.278;2023-05-25T00:03:28;99184.81;;;12.49;51.32
9969;BME280;5025;48.890;9.278;2023-05-25T00:05:55;99192.56;;;12.45;51.34
9969;BME280;5025;48.890;9.278;2023-05-25T00:08:20;99183.03;;;12.43;51.52
9969;BME280;5025;48.890;9.278;2023-05-25T00:10:45;99185.13;;;12.41;51.38
9969;BME280;5025;48.890;9.278;2023-05-25T00:13:10;99183.75;;;12.38;51.84
9969;BME280;5025;48.890;9.278;2023-05-25T00:15:36;99180.06;;;12.32;51.82
9969;BME280;5025;48.890;9.278;2023-05-25T00:18:01;99181.56;;;12.28;51.99
9969;BME280;5025;48.890;9.278;2023-05-25T00:20:26;99182.47;;;12.22;52.06
9969;BME280;5025;48.890;9.278;2023-05-25T00:22:52;99180.84;;;12.21;52.10
9969;BME280;5025;48.890;9.278;2023-05-25T00:25:20;99176.72;;;12.18;52.31
9969;BME280;5025;48.890;9.278;2023-05-25T00:27:45;99179.66;;;12.17;52.32
9969;BME280;5025;48.890;9.278;2023-05-25T00:30:11;99179.28;;;12.13;52.28
9969;BME280;5025;48.890;9.278;2023-05-25T00:32:36;99182.81;;;12.14;52.25
9969;BME280;5025;48.890;9.278;2023-05-25T00:35:01;99183.84;;;12.13;52.43
9969;BME280;5025;48.890;9.278;2023-05-25T00:37:27;99185.97;;;12.11;52.32
9969;BME280;5025;48.890;9.278;2023-05-25T00:39:52;99182.22;;;12.12;52.44
9969;BME280;5025;48.890;9.278;2023-05-25T00:42:18;99174.69;;;12.14;52.34
9969;BME280;5025;48.890;9.278;2023-05-25T00:44:43;99178.81;;;12.16;52.23
9969;BME280;5025;48.890;9.278;2023-05-25T00:47:09;99176.72;;;12.18;52.13
9969;BME280;5025;48.890;9.278;2023-05-25T00:49:35;99172.50;;;12.23;52.23
9969;BME280;5025;48.890;9.278;2023-05-25T00:52:01;99177.06;;;12.22;52.38
9969;BME280;5025;48.890;9.278;2023-05-25T00:54:27;99176.59;;;12.25;52.11
9969;BME280;5025;48.890;9.278;2023-05-25T00:56:55;99175.56;;;12.26;52.32
9969;BME280;5025;48.890;9.278;2023-05-25T00:59:40;99176.16;;;12.28;52.08
9969;BME280;5025;48.890;9.278;2023-05-25T01:02:07;99173.44;;;12.28;52.37
9969;BME280;5025;48.890;9.278;2023-05-25T01:04:37;99173.22;;;12.30;52.47
9969;BME280;5025;48.890;9.278;2023-05-25T01:07:05;99171.34;;;12.30;52.49
9969;BME280;5025;48.890;9.278;2023-05-25T01:09:33;99173.44;;;12.28;52.71
9969;BME280;5025;48.890;9.278;2023-05-25T01:12:01;99166.38;;;12.27;52.98
9969;BME280;5025;48.890;9.278;2023-05-25T01:14:27;99164.16;;;12.24;53.27
9969;BME280;5025;48.890;9.278;2023-05-25T01:16:53;99168.47;;;12.25;53.30
9969;BME280;5025;48.890;9.278;2023-05-25T01:19:23;99165.78;;;12.25;53.37
9969;BME280;5025;48.890;9.278;2023-05-25T01:22:07;99154.94;;;12.25;53.52
9969;BME280;5025;48.890;9.278;2023-05-25T01:24:39;99165.41;;;12.22;53.57
9969;BME280;5025;48.890;9.278;2023-05-25T01:27:27;99154.22;;;12.18;53.75
9969;BME280;5025;48.890;9.278;2023-05-25T01:29:57;99164.69;;;12.14;53.86
9969;BME280;5025;48.890;9.278;2023-05-25T01:32:23;99162.44;;;12.11;53.96
9969;BME280;5025;48.890;9.278;2023-05-25T01:34:49;99161.25;;;12.07;54.12
9969;BME280;5025;48.890;9.278;2023-05-25T01:37:17;99159.38;;;12.08;54.06
9969;BME280;5025;48.890;9.278;2023-05-25T01:39:43;99163.13;;;12.07;54.08
9969;BME280;5025;48.890;9.278;2023-05-25T01:42:08;99165.69;;;12.01;54.26
9969;BME280;5025;48.890;9.278;2023-05-25T01:44:34;99170.75;;;11.98;54.25
9969;BME280;5025;48.890;9.278;2023-05-25T01:47:03;99171.19;;;11.95;54.31
9969;BME280;5025;48.890;9.278;2023-05-25T01:49:41;99170.19;;;11.89;54.42
9969;BME280;5025;48.890;9.278;2023-05-25T01:54:37;99169.25;;;11.83;54.62
9969;BME280;5025;48.890;9.278;2023-05-25T01:57:06;99170.16;;;11.77;54.70
9969;BME280;5025;48.890;9.278;2023-05-25T01:59:35;99167.50;;;11.71;54.79
9969;BME280;5025;48.890;9.278;2023-05-25T02:02:01;99165.88;;;11.70;54.87
9969;BME280;5025;48.890;9.278;2023-05-25T02:04:28;99169.03;;;11.66;55.04
9969;BME280;5025;48.890;9.278;2023-05-25T02:06:53;99168.63;;;11.63;55.22
9969;BME280;5025;48.890;9.278;2023-05-25T02:09:18;99166.16;;;11.61;55.00
9969;BME280;5025;48.890;9.278;2023-05-25T02:11:43;99164.97;;;11.57;55.01
9969;BME280;5025;48.890;9.278;2023-05-25T02:14:09;99163.75;;;11.53;55.21
9969;BME280;5025;48.890;9.278;2023-05-25T02:16:35;99158.22;;;11.48;55.24
9969;BME280;5025;48.890;9.278;2023-05-25T02:19:00;99152.19;;;11.46;55.19
9969;BME280;5025;48.890;9.278;2023-05-25T02:21:25;99157.00;;;11.44;55.28
9969;BME280;5025;48.890;9.278;2023-05-25T02:23:51;99149.34;;;11.41;55.34
9969;BME280;5025;48.890;9.278;2023-05-25T02:26:18;99149.19;;;11.36;55.48
9969;BME280;5025;48.890;9.278;2023-05-25T02:28:43;99147.38;;;11.29;55.63
9969;BME280;5025;48.890;9.278;2023-05-25T02:31:09;99145.38;;;11.25;55.70
9969;BME280;5025;48.890;9.278;2023-05-25T02:33:34;99156.19;;;11.25;55.83
9969;BME280;5025;48.890;9.278;2023-05-25T02:35:59;99150.38;;;11.21;55.83
9969;BME280;5025;48.890;9.278;2023-05-25T02:38:24;99151.44;;;11.20;56.14
9969;BME280;5025;48.890;9.278;2023-05-25T02:40:50;99156.44;;;11.17;56.29
9969;BME280;5025;48.890;9.278;2023-05-25T02:43:15;99157.13;;;11.12;56.49
9969;BME280;5025;48.890;9.278;2023-05-25T02:45:40;99158.63;;;11.08;56.46
9969;BME280;5025;48.890;9.278;2023-05-25T02:48:06;99151.78;;;11.05;56.46
9969;BME280;5025;48.890;9.278;2023-05-25T02:50:31;99153.91;;;11.03;56.38
9969;BME280;5025;48.890;9.278;2023-05-25T02:52:56;99155.16;;;11.01;56.59
9969;BME280;5025;48.890;9.278;2023-05-25T02:55:21;99153.72;;;10.98;56.68
9969;BME280;5025;48.890;9.278;2023-05-25T02:57:50;99166.41;;;10.98;56.77
9969;BME280;5025;48.890;9.278;2023-05-25T03:00:16;99158.53;;;10.96;56.75
9969;BME280;5025;48.890;9.278;2023-05-25T03:02:41;99164.97;;;10.95;56.90
9969;BME280;5025;48.890;9.278;2023-05-25T03:05:07;99166.84;;;10.94;56.92
9969;BME280;5025;48.890;9.278;2023-05-25T03:07:32;99162.72;;;10.92;56.99
9969;BME280;5025;48.890;9.278;2023-05-25T03:09:58;99167.28;;;10.91;57.10
9969;BME280;5025;48.890;9.278;2023-05-25T03:12:23;99171.88;;;10.91;57.00
9969;BME280;5025;48.890;9.278;2023-05-25T03:14:48;99170.00;;;10.91;57.04
9969;BME280;5025;48.890;9.278;2023-05-25T03:17:14;99168.34;;;10.90;57.26
9969;BME280;5025;48.890;9.278;2023-05-25T03:19:39;99172.09;;;10.89;57.18
9969;BME280;5025;48.890;9.278;2023-05-25T03:22:05;99176.06;;;10.87;57.20
9969;BME280;5025;48.890;9.278;2023-05-25T03:24:30;99176.94;;;10.81;57.31
9969;BME280;5025;48.890;9.278;2023-05-25T03:26:55;99183.38;;;10.80;57.43
9969;BME280;5025;48.890;9.278;2023-05-25T03:29:21;99180.31;;;10.76;57.37
9969;BME280;5025;48.890;9.278;2023-05-25T03:31:46;99179.72;;;10.74;57.63
9969;BME280;5025;48.890;9.278;2023-05-25T03:34:11;99170.38;;;10.70;57.79
9969;BME280;5025;48.890;9.278;2023-05-25T03:36:37;99180.38;;;10.69;57.91
9969;BME280;5025;48.890;9.278;2023-05-25T03:39:03;99181.63;;;10.67;57.89
9969;BME280;5025;48.890;9.278;2023-05-25T03:41:29;99179.97;;;10.66;57.93
9969;BME280;5025;48.890;9.278;2023-05-25T03:43:54;99182.66;;;10.66;58.01
9969;BME280;5025;48.890;9.278;2023-05-25T03:46:19;99194.09;;;10.68;58.05
9969;BME280;5025;48.890;9.278;2023-05-25T03:48:45;99188.06;;;10.66;58.11
9969;BME280;5025;48.890;9.278;2023-05-25T03:51:10;99190.97;;;10.64;58.29
9969;BME280;5025;48.890;9.278;2023-05-25T03:53:35;99191.41;;;10.61;58.26
9969;BME280;5025;48.890;9.278;2023-05-25T03:56:01;99188.56;;;10.56;58.36
9969;BME280;5025;48.890;9.278;2023-05-25T03:58:26;99197.03;;;10.59;58.39
9969;BME280;5025;48.890;9.278;2023-05-25T04:00:51;99186.69;;;10.56;58.50
9969;BME280;5025;48.890;9.278;2023-05-25T04:03:17;99189.38;;;10.56;58.73
9969;BME280;5025;48.890;9.278;2023-05-25T04:05:42;99188.56;;;10.56;58.69
9969;BME280;5025;48.890;9.278;2023-05-25T04:08:10;99187.16;;;10.53;58.68
9969;BME280;5025;48.890;9.278;2023-05-25T04:10:36;99195.00;;;10.55;58.65
9969;BME280;5025;48.890;9.278;2023-05-25T04:13:01;99197.94;;;10.53;59.08
9969;BME280;5025;48.890;9.278;2023-05-25T04:15:26;99197.94;;;10.53;59.08
9969;BME280;5025;48.890;9.278;2023-05-25T04:17:51;99204.97;;;10.54;59.15
9969;BME280;5025;48.890;9.278;2023-05-25T04:20:17;99204.16;;;10.54;59.35
9969;BME280;5025;48.890;9.278;2023-05-25T04:22:42;99198.75;;;10.54;59.39
9969;BME280;5025;48.890;9.278;2023-05-25T04:25:09;99197.94;;;10.53;59.54
9969;BME280;5025;48.890;9.278;2023-05-25T04:27:34;99204.38;;;10.52;59.51
9969;BME280;5025;48.890;9.278;2023-05-25T04:30:00;99213.91;;;10.55;59.61
9969;BME280;5025;48.890;9.278;2023-05-25T04:32:26;99213.69;;;10.56;59.62
9969;BME280;5025;48.890;9.278;2023-05-25T04:34:53;99212.03;;;10.55;59.70
9969;BME280;5025;48.890;9.278;2023-05-25T04:37:19;99214.53;;;10.57;59.81
9969;BME280;5025;48.890;9.278;2023-05-25T04:39:45;99212.03;;;10.55;59.90
9969;BME280;5025;48.890;9.278;2023-05-25T04:42:10;99211.19;;;10.55;60.16
9969;BME280;5025;48.890;9.278;2023-05-25T04:44:36;99208.06;;;10.58;60.18
9969;BME280;5025;48.890;9.278;2023-05-25T04:47:04;99210.31;;;10.61;60.23
9969;BME280;5025;48.890;9.278;2023-05-25T04:49:29;99212.81;;;10.63;60.20
9969;BME280;5025;48.890;9.278;2023-05-25T04:51:55;99203.88;;;10.62;60.28
9969;BME280;5025;48.890;9.278;2023-05-25T04:54:20;99212.00;;;10.62;60.45
9969;BME280;5025;48.890;9.278;2023-05-25T04:56:46;99215.06;;;10.66;60.51
9969;BME280;5025;48.890;9.278;2023-05-25T04:59:11;99216.97;;;10.65;60.65
9969;BME280;5025;48.890;9.278;2023-05-25T05:01:36;99225.13;;;10.58;60.71
9969;BME280;5025;48.890;9.278;2023-05-25T05:04:06;99234.09;;;10.52;61.31
9969;BME280;5025;48.890;9.278;2023-05-25T05:06:32;99228.47;;;10.54;61.23
9969;BME280;5025;48.890;9.278;2023-05-25T05:08:58;99222.84;;;10.55;61.39
9969;BME280;5025;48.890;9.278;2023-05-25T05:11:23;99224.03;;;10.59;61.42
9969;BME280;5025;48.890;9.278;2023-05-25T05:13:48;99229.00;;;10.63;61.52
9969;BME280;5025;48.890;9.278;2023-05-25T05:16:14;99233.97;;;10.66;61.16
9969;BME280;5025;48.890;9.278;2023-05-25T05:18:40;99229.00;;;10.69;61.43
9969;BME280;5025;48.890;9.278;2023-05-25T05:21:05;99241.00;;;10.73;61.52
9969;BME280;5025;48.890;9.278;2023-05-25T05:23:30;99241.41;;;10.77;61.57
9969;BME280;5025;48.890;9.278;2023-05-25T05:25:57;99244.69;;;10.79;61.70
9969;BME280;5025;48.890;9.278;2023-05-25T05:28:23;99256.97;;;10.82;61.72
9969;BME280;5025;48.890;9.278;2023-05-25T05:30:51;99254.03;;;10.83;61.88
9969;BME280;5025;48.890;9.278;2023-05-25T05:33:16;99257.34;;;10.85;61.70
9969;BME280;5025;48.890;9.278;2023-05-25T05:35:41;99255.88;;;10.89;62.01
9969;BME280;5025;48.890;9.278;2023-05-25T05:38:07;99258.72;;;10.94;61.96
9969;BME280;5025;48.890;9.278;2023-05-25T05:40:32;99256.19;;;11.00;61.90
9969;BME280;5025;48.890;9.278;2023-05-25T05:42:57;99255.75;;;11.03;62.14
9969;BME280;5025;48.890;9.278;2023-05-25T05:45:23;99252.81;;;11.04;61.83
9969;BME280;5025;48.890;9.278;2023-05-25T05:47:48;99256.53;;;11.10;62.07
9969;BME280;5025;48.890;9.278;2023-05-25T05:50:13;99267.50;;;11.15;62.11
9969;BME280;5025;48.890;9.278;2023-05-25T05:52:38;99263.91;;;11.21;62.04
9969;BME280;5025;48.890;9.278;2023-05-25T05:55:04;99263.47;;;11.24;62.21
9969;BME280;5025;48.890;9.278;2023-05-25T05:57:30;99272.59;;;11.30;62.33
9969;BME280;5025;48.890;9.278;2023-05-25T05:59:55;99272.13;;;11.33;62.22
9969;BME280;5025;48.890;9.278;2023-05-25T06:02:20;99273.13;;;11.39;62.42
9969;BME280;5025;48.890;9.278;2023-05-25T06:04:46;99276.81;;;11.44;62.63
9969;BME280;5025;48.890;9.278;2023-05-25T06:07:11;99272.41;;;11.50;62.56
9969;BME280;5025;48.890;9.278;2023-05-25T06:09:37;99279.84;;;11.55;62.45
9969;BME280;5025;48.890;9.278;2023-05-25T06:12:02;99278.13;;;11.60;62.52
9969;BME280;5025;48.890;9.278;2023-05-25T06:14:27;99273.91;;;11.64;62.64
9969;BME280;5025;48.890;9.278;2023-05-25T06:16:53;99278.81;;;11.74;62.44
9969;BME280;5025;48.890;9.278;2023-05-25T06:19:18;99283.56;;;11.79;62.12
9969;BME280;5025;48.890;9.278;2023-05-25T06:21:43;99280.78;;;11.86;62.11
9969;BME280;5025;48.890;9.278;2023-05-25T06:24:09;99279.25;;;11.90;62.27
9969;BME280;5025;48.890;9.278;2023-05-25T06:26:34;99284.03;;;11.94;62.11
9969;BME280;5025;48.890;9.278;2023-05-25T06:28:59;99284.44;;;11.98;62.06
9969;BME280;5025;48.890;9.278;2023-05-25T06:31:24;99288.09;;;12.04;62.01
9969;BME280;5025;48.890;9.278;2023-05-25T06:33:50;99281.78;;;12.10;61.96
9969;BME280;5025;48.890;9.278;2023-05-25T06:36:15;99288.41;;;12.14;61.99
9969;BME280;5025;48.890;9.278;2023-05-25T06:38:41;99281.47;;;12.18;61.83
9969;BME280;5025;48.890;9.278;2023-05-25T06:41:06;99287.84;;;12.24;62.02
9969;BME280;5025;48.890;9.278;2023-05-25T06:43:33;99281.53;;;12.30;61.94
9969;BME280;5025;48.890;9.278;2023-05-25T06:45:58;99288.75;;;12.36;61.82
9969;BME280;5025;48.890;9.278;2023-05-25T06:48:24;99282.88;;;12.39;61.51
9969;BME280;5025;48.890;9.278;2023-05-25T06:50:49;99286.56;;;12.45;61.68
9969;BME280;5025;48.890;9.278;2023-05-25T06:53:14;99299.19;;;12.51;61.69
9969;BME280;5025;48.890;9.278;2023-05-25T06:55:41;99299.72;;;12.60;61.49
9969;BME280;5025;48.890;9.278;2023-05-25T06:58:06;99291.72;;;12.65;61.56
9969;BME280;5025;48.890;9.278;2023-05-25T07:00:31;99302.22;;;12.73;61.33
9969;BME280;5025;48.890;9.278;2023-05-25T07:02:56;99296.72;;;12.80;61.22
9969;BME280;5025;48.890;9.278;2023-05-25T07:05:22;99304.50;;;12.88;61.22
9969;BME280;5025;48.890;9.278;2023-05-25T07:07:47;99302.31;;;12.97;61.15
9969;BME280;5025;48.890;9.278;2023-05-25T07:10:12;99298.44;;;13.04;61.18
9969;BME280;5025;48.890;9.278;2023-05-25T07:12:37;99303.75;;;13.11;60.91
9969;BME280;5025;48.890;9.278;2023-05-25T07:15:04;99305.06;;;13.20;61.01
9969;BME280;5025;48.890;9.278;2023-05-25T07:17:29;99304.13;;;13.26;60.87
9969;BME280;5025;48.890;9.278;2023-05-25T07:19:55;99303.81;;;13.35;60.79
9969;BME280;5025;48.890;9.278;2023-05-25T07:22:20;99301.69;;;13.37;60.79
9969;BME280;5025;48.890;9.278;2023-05-25T07:24:47;99297.78;;;13.44;60.44
9969;BME280;5025;48.890;9.278;2023-05-25T07:27:13;99307.72;;;13.51;60.44
9969;BME280;5025;48.890;9.278;2023-05-25T07:29:38;99305.72;;;13.58;60.39
9969;BME280;5025;48.890;9.278;2023-05-25T07:32:05;99307.25;;;13.66;60.41
9969;BME280;5025;48.890;9.278;2023-05-25T07:34:32;99303.84;;;13.70;60.03
9969;BME280;5025;48.890;9.278;2023-05-25T07:36:57;99300.19;;;13.76;60.02
9969;BME280;5025;48.890;9.278;2023-05-25T07:39:23;99308.44;;;13.81;60.09
9969;BME280;5025;48.890;9.278;2023-05-25T07:41:48;99306.91;;;13.86;59.63
9969;BME280;5025;48.890;9.278;2023-05-25T07:44:13;99301.09;;;13.94;59.80
9969;BME280;5025;48.890;9.278;2023-05-25T07:46:38;99301.22;;;13.99;59.66
9969;BME280;5025;48.890;9.278;2023-05-25T07:49:04;99303.22;;;14.04;59.66
9969;BME280;5025;48.890;9.278;2023-05-25T07:51:30;99306.28;;;14.07;59.57
9969;BME280;5025;48.890;9.278;2023-05-25T07:53:57;99307.47;;;14.11;59.40
9969;BME280;5025;48.890;9.278;2023-05-25T07:56:23;99306.28;;;14.19;59.47
9969;BME280;5025;48.890;9.278;2023-05-25T07:58:48;99309.66;;;14.26;59.46
9969;BME280;5025;48.890;9.278;2023-05-25T08:01:13;99298.91;;;14.31;59.26
9969;BME280;5025;48.890;9.278;2023-05-25T08:03:40;99309.63;;;14.38;58.98
9969;BME280;5025;48.890;9.278;2023-05-25T08:06:05;99302.75;;;14.47;58.98
9969;BME280;5025;48.890;9.278;2023-05-25T08:08:31;99300.94;;;14.53;58.95
9969;BME280;5025;48.890;9.278;2023-05-25T08:10:56;99305.19;;;14.61;58.88
9969;BME280;5025;48.890;9.278;2023-05-25T08:13:22;99311.56;;;14.66;58.86
9969;BME280;5025;48.890;9.278;2023-05-25T08:15:47;99302.78;;;14.76;58.74
9969;BME280;5025;48.890;9.278;2023-05-25T08:18:14;99299.31;;;14.81;58.69
9969;BME280;5025;48.890;9.278;2023-05-25T08:20:39;99297.03;;;14.90;58.81
9969;BME280;5025;48.890;9.278;2023-05-25T08:23:05;99293.09;;;14.97;58.71
9969;BME280;5025;48.890;9.278;2023-05-25T08:25:30;99299.47;;;15.03;58.54
9969;BME280;5025;48.890;9.278;2023-05-25T08:27:55;99299.53;;;15.08;58.39
9969;BME280;5025;48.890;9.278;2023-05-25T08:30:21;99294.28;;;15.18;58.20
9969;BME280;5025;48.890;9.278;2023-05-25T08:32:46;99311.25;;;15.26;58.28
9969;BME280;5025;48.890;9.278;2023-05-25T08:35:11;99306.16;;;15.29;58.25
9969;BME280;5025;48.890;9.278;2023-05-25T08:37:38;99308.22;;;15.39;58.34
9969;BME280;5025;48.890;9.278;2023-05-25T08:40:06;99310.53;;;15.47;58.08
9969;BME280;5025;48.890;9.278;2023-05-25T08:42:32;99313.41;;;15.57;58.03
9969;BME280;5025;48.890;9.278;2023-05-25T08:44:57;99308.69;;;15.70;57.84
9969;BME280;5025;48.890;9.278;2023-05-25T08:47:22;99307.78;;;15.81;57.56
9969;BME280;5025;48.890;9.278;2023-05-25T08:49:48;99312.06;;;15.94;57.28
9969;BME280;5025;48.890;9.278;2023-05-25T08:52:20;99312.22;;;16.04;57.16
9969;BME280;5025;48.890;9.278;2023-05-25T08:54:46;99314.44;;;16.07;57.10
9969;BME280;5025;48.890;9.278;2023-05-25T08:57:16;99311.00;;;16.17;56.86
9969;BME280;5025;48.890;9.278;2023-05-25T08:59:59;99310.38;;;16.32;56.56
9969;BME280;5025;48.890;9.278;2023-05-25T09:02:32;99305.38;;;16.46;56.26
9969;BME280;5025;48.890;9.278;2023-05-25T09:05:00;99295.66;;;16.55;56.25
9969;BME280;5025;48.890;9.278;2023-05-25T09:07:27;99296.84;;;16.64;56.14
9969;BME280;5025;48.890;9.278;2023-05-25T09:09:52;99300.25;;;16.77;56.00
9969;BME280;5025;48.890;9.278;2023-05-25T09:12:19;99299.31;;;16.88;55.83
9969;BME280;5025;48.890;9.278;2023-05-25T09:14:46;99293.66;;;16.95;55.94
9969;BME280;5025;48.890;9.278;2023-05-25T09:17:14;99301.63;;;17.01;55.67
9969;BME280;5025;48.890;9.278;2023-05-25T09:19:41;99296.47;;;17.05;55.59
9969;BME280;5025;48.890;9.278;2023-05-25T09:22:06;99294.38;;;17.12;55.69
9969;BME280;5025;48.890;9.278;2023-05-25T09:24:32;99293.63;;;17.22;55.35
9969;BME280;5025;48.890;9.278;2023-05-25T09:26:58;99285.81;;;17.36;55.54
9969;BME280;5025;48.890;9.278;2023-05-25T09:29:23;99289.44;;;17.47;55.04
9969;BME280;5025;48.890;9.278;2023-05-25T09:31:49;99289.28;;;17.59;54.69
9969;BME280;5025;48.890;9.278;2023-05-25T09:34:15;99297.25;;;17.70;54.65
9969;BME280;5025;48.890;9.278;2023-05-25T09:36:40;99292.41;;;17.83;54.45
9969;BME280;5025;48.890;9.278;2023-05-25T09:39:10;99291.44;;;17.94;54.12
9969;BME280;5025;48.890;9.278;2023-05-25T09:41:36;99295.84;;;18.05;53.96
9969;BME280;5025;48.890;9.278;2023-05-25T09:44:03;99298.13;;;18.19;53.66
9969;BME280;5025;48.890;9.278;2023-05-25T09:46:28;99301.69;;;18.24;53.43
9969;BME280;5025;48.890;9.278;2023-05-25T09:48:56;99301.19;;;18.33;53.16
9969;BME280;5025;48.890;9.278;2023-05-25T09:51:21;99303.66;;;18.39;53.02
9969;BME280;5025;48.890;9.278;2023-05-25T09:53:47;99303.94;;;18.48;52.71
9969;BME280;5025;48.890;9.278;2023-05-25T09:56:13;99306.72;;;18.53;52.46
9969;BME280;5025;48.890;9.278;2023-05-25T09:58:38;99296.59;;;18.54;52.43
9969;BME280;5025;48.890;9.278;2023-05-25T10:01:03;99302.06;;;18.54;52.39
9969;BME280;5025;48.890;9.278;2023-05-25T10:03:29;99298.25;;;18.55;52.24
9969;BME280;5025;48.890;9.278;2023-05-25T10:05:55;99299.63;;;18.62;52.19
9969;BME280;5025;48.890;9.278;2023-05-25T10:08:21;99308.13;;;18.71;52.13
9969;BME280;5025;48.890;9.278;2023-05-25T10:10:48;99306.22;;;18.72;51.91
9969;BME280;5025;48.890;9.278;2023-05-25T10:13:19;99300.75;;;18.82;51.60
9969;BME280;5025;48.890;9.278;2023-05-25T10:15:46;99298.38;;;18.86;51.64
9969;BME280;5025;48.890;9.278;2023-05-25T10:18:13;99296.44;;;18.91;51.47
9969;BME280;5025;48.890;9.278;2023-05-25T10:20:41;99294.00;;;18.95;51.51
9969;BME280;5025;48.890;9.278;2023-05-25T10:23:10;99298.38;;;19.01;51.59
9969;BME280;5025;48.890;9.278;2023-05-25T10:25:39;99286.63;;;19.06;51.51
9969;BME280;5025;48.890;9.278;2023-05-25T10:28:21;99289.88;;;19.13;51.36
9969;BME280;5025;48.890;9.278;2023-05-25T10:30:52;99287.72;;;19.20;51.35
9969;BME280;5025;48.890;9.278;2023-05-25T10:33:19;99291.56;;;19.29;51.23
9969;BME280;5025;48.890;9.278;2023-05-25T10:35:45;99289.09;;;19.38;51.17
9969;BME280;5025;48.890;9.278;2023-05-25T10:38:11;99281.13;;;19.42;51.14
9969;BME280;5025;48.890;9.278;2023-05-25T10:40:37;99283.59;;;19.48;50.69
9969;BME280;5025;48.890;9.278;2023-05-25T10:43:04;99281.66;;;19.59;50.68
9969;BME280;5025;48.890;9.278;2023-05-25T10:45:30;99288.50;;;19.72;50.48
9969;BME280;5025;48.890;9.278;2023-05-25T10:47:56;99290.16;;;19.83;50.24
9969;BME280;5025;48.890;9.278;2023-05-25T10:50:23;99282.44;;;19.96;50.13
9969;BME280;5025;48.890;9.278;2023-05-25T10:55:42;99282.97;;;20.03;49.62
9969;BME280;5025;48.890;9.278;2023-05-25T11:00:34;99283.47;;;20.15;49.10
9969;BME280;5025;48.890;9.278;2023-05-25T11:02:59;99288.91;;;20.26;48.68
9969;BME280;5025;48.890;9.278;2023-05-25T11:07:55;99287.72;;;20.47;48.62
9969;BME280;5025;48.890;9.278;2023-05-25T11:13:36;99285.19;;;20.61;47.78
9969;BME280;5025;48.890;9.278;2023-05-25T11:18:48;99279.69;;;20.66;47.58
9969;BME280;5025;48.890;9.278;2023-05-25T11:21:15;99273.06;;;20.72;47.38
9969;BME280;5025;48.890;9.278;2023-05-25T11:23:59;99265.06;;;20.81;47.42
9969;BME280;5025;48.890;9.278;2023-05-25T11:26:32;99273.78;;;20.93;47.19
9969;BME280;5025;48.890;9.278;2023-05-25T11:28:59;99269.03;;;21.04;47.43
9969;BME280;5025;48.890;9.278;2023-05-25T11:31:29;99283.28;;;21.06;47.35
9969;BME280;5025;48.890;9.278;2023-05-25T11:33:59;99270.66;;;21.05;46.96
9969;BME280;5025;48.890;9.278;2023-05-25T11:36:25;99279.97;;;21.09;46.83
9969;BME280;5025;48.890;9.278;2023-05-25T11:38:52;99271.97;;;21.13;46.50
9969;BME280;5025;48.890;9.278;2023-05-25T11:41:18;99271.97;;;21.13;46.41
9969;BME280;5025;48.890;9.278;2023-05-25T11:43:45;99277.44;;;21.13;46.30
9969;BME280;5025;48.890;9.278;2023-05-25T11:46:10;99271.97;;;21.13;46.14
9969;BME280;5025;48.890;9.278;2023-05-25T11:48:41;99274.41;;;21.14;46.01
9969;BME280;5025;48.890;9.278;2023-05-25T11:51:07;99271.97;;;21.13;46.16
9969;BME280;5025;48.890;9.278;2023-05-25T11:53:32;99268.13;;;21.14;45.85
9969;BME280;5025;48.890;9.278;2023-05-25T11:55:57;99270.81;;;21.19;46.06
9969;BME280;5025;48.890;9.278;2023-05-25T11:58:23;99273.53;;;21.24;45.75
9969;BME280;5025;48.890;9.278;2023-05-25T12:00:48;99274.56;;;21.28;45.84
9969;BME280;5025;48.890;9.278;2023-05-25T12:03:31;99266.88;;;21.30;46.03
9969;BME280;5025;48.890;9.278;2023-05-25T12:05:57;99267.94;;;21.35;46.15
9969;BME280;5025;48.890;9.278;2023-05-25T12:08:36;99265.97;;;21.40;46.07
9969;BME280;5025;48.890;9.278;2023-05-25T12:11:02;99273.13;;;21.41;46.14
9969;BME280;5025;48.890;9.278;2023-05-25T12:13:29;99262.94;;;21.42;45.67
9969;BME280;5025;48.890;9.278;2023-05-25T12:15:54;99272.84;;;21.38;45.64
9969;BME280;5025;48.890;9.278;2023-05-25T12:18:22;99264.31;;;21.39;45.83
9969;BME280;5025;48.890;9.278;2023-05-25T12:20:48;99265.97;;;21.40;45.40
9969;BME280;5025;48.890;9.278;2023-05-25T12:23:13;99274.72;;;21.42;45.59
9969;BME280;5025;48.890;9.278;2023-05-25T12:25:39;99265.97;;;21.40;45.87
9969;BME280;5025;48.890;9.278;2023-05-25T12:28:14;99269.25;;;21.42;45.49
9969;BME280;5025;48.890;9.278;2023-05-25T12:30:40;99258.25;;;21.42;45.36
9969;BME280;5025;48.890;9.278;2023-05-25T12:33:05;99259.09;;;21.43;45.25
9969;BME280;5025;48.890;9.278;2023-05-25T12:35:47;99256.56;;;21.46;45.17
9969;BME280;5025;48.890;9.278;2023-05-25T12:38:14;99260.13;;;21.52;45.03
9969;BME280;5025;48.890;9.278;2023-05-25T12:40:40;99268.31;;;21.57;45.33
9969;BME280;5025;48.890;9.278;2023-05-25T12:43:05;99257.25;;;21.62;45.19
9969;BME280;5025;48.890;9.278;2023-05-25T12:45:31;99262.19;;;21.65;45.13
9969;BME280;5025;48.890;9.278;2023-05-25T12:47:56;99264.34;;;21.69;44.97
9969;BME280;5025;48.890;9.278;2023-05-25T12:50:22;99265.63;;;21.76;45.18
9969;BME280;5025;48.890;9.278;2023-05-25T12:52:47;99257.00;;;21.88;45.24
9969;BME280;5025;48.890;9.278;2023-05-25T13:00:31;99255.88;;;22.13;44.54
9969;BME280;5025;48.890;9.278;2023-05-25T13:02:57;99253.59;;;22.20;44.69
9969;BME280;5025;48.890;9.278;2023-05-25T13:05:29;99254.84;;;22.33;44.41
9969;BME280;5025;48.890;9.278;2023-05-25T13:07:56;99249.78;;;22.41;44.46
9969;BME280;5025;48.890;9.278;2023-05-25T13:10:22;99258.56;;;22.43;43.97
9969;BME280;5025;48.890;9.278;2023-05-25T13:12:48;99250.22;;;22.48;43.82
9969;BME280;5025;48.890;9.278;2023-05-25T13:15:16;99251.06;;;22.48;43.67
9969;BME280;5025;48.890;9.278;2023-05-25T13:17:43;99255.31;;;22.60;43.58
9969;BME280;5025;48.890;9.278;2023-05-25T13:20:11;99245.66;;;22.62;43.54
9969;BME280;5025;48.890;9.278;2023-05-25T13:22:37;99250.56;;;22.65;43.36
9969;BME280;5025;48.890;9.278;2023-05-25T13:25:02;99249.38;;;22.71;43.36
9969;BME280;5025;48.890;9.278;2023-05-25T13:27:28;99250.31;;;22.81;42.99
9969;BME280;5025;48.890;9.278;2023-05-25T13:29:54;99238.63;;;22.89;42.81
9969;BME280;5025;48.890;9.278;2023-05-25T13:32:19;99239.06;;;22.96;42.54
9969;BME280;5025;48.890;9.278;2023-05-25T13:34:44;99237.88;;;23.02;42.94
9969;BME280;5025;48.890;9.278;2023-05-25T13:37:09;99231.47;;;23.07;42.84
9969;BME280;5025;48.890;9.278;2023-05-25T13:39:35;99233.25;;;23.17;42.26